Main page
METAR-TAF:

METAR-TAF

Airports :

Shelbyville Municipal Airport

Shelbyville, Tennessee, United States

latitude: 35-33-34N, longitude: 086-26-33W, elevation: 800 ft

Current weather observation

The report was made 15 minutes ago, at 17:15 UTC
Wind 3 mph from the Southwest
Temperature 68°F
Humidity 100%
Pressure 30.11 in. Hg
Visibility: 1 miles
Broken clouds at a height of 200 ft
mist

METAR: KSYI 191715Z AUTO 22003KT 1SM BR BKN002 20/20 A3011 RMK A01

Time: 12:30 (17:30 UTC)


TAF: missing

Weather observations and forecasts of more than 4000 airports (METAR and TAF reports).

The available stations are represented by yellow and red dots on the map.

Hover mouse over dot to see the name of the station.

Then click to see weather observations and forecasts.

To change the map : click on the green buttons with a black cross to zoom in, on the green button with a dash to zoom out, or on the green arrows for adjacent maps.


METAR-TAF: